sensor_id;sensor_type;location;lat;lon;timestamp;temperature;humidity
68658;DHT22;55639;53.480;-2.228;2022-09-14T00:00:12;24.80;47.20
68658;DHT22;55639;53.480;-2.228;2022-09-14T00:02:37;24.70;47.10
68658;DHT22;55639;53.480;-2.228;2022-09-14T00:05:03;24.80;47.20
68658;DHT22;55639;53.480;-2.228;2022-09-14T00:07:28;24.80;47.20
68658;DHT22;55639;53.480;-2.228;2022-09-14T00:09:54;24.80;47.20
68658;DHT22;55639;53.480;-2.228;2022-09-14T00:12:20;24.70;47.20
68658;DHT22;55639;53.480;-2.228;2022-09-14T00:14:45;24.70;47.20
68658;DHT22;55639;53.480;-2.228;2022-09-14T00:17:11;24.70;47.20
68658;DHT22;55639;53.480;-2.228;2022-09-14T00:19:37;24.70;47.20
68658;DHT22;55639;53.480;-2.228;2022-09-14T00:22:02;24.70;47.20
68658;DHT22;55639;53.480;-2.228;2022-09-14T00:24:28;24.70;47.20
68658;DHT22;55639;53.480;-2.228;2022-09-14T00:26:59;24.70;47.20
68658;DHT22;55639;53.480;-2.228;2022-09-14T00:29:25;24.70;47.20
68658;DHT22;55639;53.480;-2.228;2022-09-14T00:31:50;24.70;47.20
68658;DHT22;55639;53.480;-2.228;2022-09-14T00:34:16;24.70;47.20
68658;DHT22;55639;53.480;-2.228;2022-09-14T00:36:42;24.70;47.20
68658;DHT22;55639;53.480;-2.228;2022-09-14T00:39:09;24.70;47.20
68658;DHT22;55639;53.480;-2.228;2022-09-14T00:41:36;24.60;47.20
68658;DHT22;55639;53.480;-2.228;2022-09-14T00:46:29;24.70;47.30
68658;DHT22;55639;53.480;-2.228;2022-09-14T00:48:55;24.70;47.30
68658;DHT22;55639;53.480;-2.228;2022-09-14T00:51:21;24.60;47.20
68658;DHT22;55639;53.480;-2.228;2022-09-14T00:53:47;24.60;47.30
68658;DHT22;55639;53.480;-2.228;2022-09-14T00:56:13;24.60;47.20
68658;DHT22;55639;53.480;-2.228;2022-09-14T00:58:39;24.60;47.80
68658;DHT22;55639;53.480;-2.228;2022-09-14T01:01:05;24.60;47.30
68658;DHT22;55639;53.480;-2.228;2022-09-14T01:03:32;24.60;47.20
68658;DHT22;55639;53.480;-2.228;2022-09-14T01:08:39;24.60;47.20
68658;DHT22;55639;53.480;-2.228;2022-09-14T01:11:14;24.60;47.20
68658;DHT22;55639;53.480;-2.228;2022-09-14T01:16:19;24.60;47.20
68658;DHT22;55639;53.480;-2.228;2022-09-14T01:18:48;24.60;47.20
68658;DHT22;55639;53.480;-2.228;2022-09-14T01:21:19;24.60;47.30
68658;DHT22;55639;53.480;-2.228;2022-09-14T01:26:35;24.60;47.30
68658;DHT22;55639;53.480;-2.228;2022-09-14T01:29:12;24.50;47.20
68658;DHT22;55639;53.480;-2.228;2022-09-14T01:31:50;24.60;47.30
68658;DHT22;55639;53.480;-2.228;2022-09-14T01:36:45;24.50;47.20
68658;DHT22;55639;53.480;-2.228;2022-09-14T01:39:13;24.50;47.20
68658;DHT22;55639;53.480;-2.228;2022-09-14T01:41:39;24.50;47.20
68658;DHT22;55639;53.480;-2.228;2022-09-14T01:44:14;24.50;47.20
68658;DHT22;55639;53.480;-2.228;2022-09-14T01:46:44;24.50;47.20
68658;DHT22;55639;53.480;-2.228;2022-09-14T01:49:22;24.50;47.20
68658;DHT22;55639;53.480;-2.228;2022-09-14T01:51:52;24.50;47.20
68658;DHT22;55639;53.480;-2.228;2022-09-14T01:55:02;24.50;47.20
68658;DHT22;55639;53.480;-2.228;2022-09-14T01:57:11;24.50;47.30
68658;DHT22;55639;53.480;-2.228;2022-09-14T01:59:40;24.50;47.20
68658;DHT22;55639;53.480;-2.228;2022-09-14T02:02:17;24.50;47.20
68658;DHT22;55639;53.480;-2.228;2022-09-14T02:04:47;24.50;47.20
68658;DHT22;55639;53.480;-2.228;2022-09-14T02:07:13;24.50;47.20
68658;DHT22;55639;53.480;-2.228;2022-09-14T02:09:39;24.50;47.20
68658;DHT22;55639;53.480;-2.228;2022-09-14T02:12:06;24.40;47.20
68658;DHT22;55639;53.480;-2.228;2022-09-14T02:14:31;24.40;47.20
68658;DHT22;55639;53.480;-2.228;2022-09-14T02:16:57;24.40;47.10
68658;DHT22;55639;53.480;-2.228;2022-09-14T02:19:22;24.40;47.20
68658;DHT22;55639;53.480;-2.228;2022-09-14T02:21:49;24.40;47.20
68658;DHT22;55639;53.480;-2.228;2022-09-14T02:24:15;24.40;47.10
68658;DHT22;55639;53.480;-2.228;2022-09-14T02:26:41;24.40;47.10
68658;DHT22;55639;53.480;-2.228;2022-09-14T02:29:07;24.40;47.10
68658;DHT22;55639;53.480;-2.228;2022-09-14T02:36:51;24.40;47.20
68658;DHT22;55639;53.480;-2.228;2022-09-14T02:39:22;24.40;47.10
68658;DHT22;55639;53.480;-2.228;2022-09-14T02:44:40;24.40;47.10
68658;DHT22;55639;53.480;-2.228;2022-09-14T02:47:14;24.40;47.10
68658;DHT22;55639;53.480;-2.228;2022-09-14T02:49:43;24.40;47.10
68658;DHT22;55639;53.480;-2.228;2022-09-14T02:52:14;24.40;47.10
68658;DHT22;55639;53.480;-2.228;2022-09-14T02:54:46;24.40;47.10
68658;DHT22;55639;53.480;-2.228;2022-09-14T02:57:14;24.40;47.10
68658;DHT22;55639;53.480;-2.228;2022-09-14T02:59:39;24.40;47.10
68658;DHT22;55639;53.480;-2.228;2022-09-14T03:02:05;24.40;47.10
68658;DHT22;55639;53.480;-2.228;2022-09-14T03:04:31;24.40;47.10
68658;DHT22;55639;53.480;-2.228;2022-09-14T03:06:56;24.40;47.10
68658;DHT22;55639;53.480;-2.228;2022-09-14T03:09:22;24.40;47.10
68658;DHT22;55639;53.480;-2.228;2022-09-14T03:11:47;24.40;47.10
68658;DHT22;55639;53.480;-2.228;2022-09-14T03:14:13;24.40;47.10
68658;DHT22;55639;53.480;-2.228;2022-09-14T03:16:38;24.30;47.10
68658;DHT22;55639;53.480;-2.228;2022-09-14T03:19:04;24.30;47.10
68658;DHT22;55639;53.480;-2.228;2022-09-14T03:21:30;24.30;47.10
68658;DHT22;55639;53.480;-2.228;2022-09-14T03:23:56;24.30;47.10
68658;DHT22;55639;53.480;-2.228;2022-09-14T03:26:22;24.30;47.10
68658;DHT22;55639;53.480;-2.228;2022-09-14T03:28:49;24.30;47.10
68658;DHT22;55639;53.480;-2.228;2022-09-14T03:31:15;24.30;47.10
68658;DHT22;55639;53.480;-2.228;2022-09-14T03:33:41;24.30;47.10
68658;DHT22;55639;53.480;-2.228;2022-09-14T03:36:14;24.30;47.10
68658;DHT22;55639;53.480;-2.228;2022-09-14T03:38:44;24.30;47.10
68658;DHT22;55639;53.480;-2.228;2022-09-14T03:41:10;24.30;47.10
68658;DHT22;55639;53.480;-2.228;2022-09-14T03:43:35;24.30;47.10
68658;DHT22;55639;53.480;-2.228;2022-09-14T03:46:05;24.30;47.10
68658;DHT22;55639;53.480;-2.228;2022-09-14T03:48:31;24.30;47.10
68658;DHT22;55639;53.480;-2.228;2022-09-14T03:50:58;24.20;47.10
68658;DHT22;55639;53.480;-2.228;2022-09-14T03:53:24;24.30;47.10
68658;DHT22;55639;53.480;-2.228;2022-09-14T03:55:49;24.20;47.10
68658;DHT22;55639;53.480;-2.228;2022-09-14T03:58:15;24.20;47.10
68658;DHT22;55639;53.480;-2.228;2022-09-14T04:00:41;24.20;47.10
68658;DHT22;55639;53.480;-2.228;2022-09-14T04:03:06;24.30;47.70
68658;DHT22;55639;53.480;-2.228;2022-09-14T04:05:32;24.20;47.10
68658;DHT22;55639;53.480;-2.228;2022-09-14T04:07:57;24.20;47.10
68658;DHT22;55639;53.480;-2.228;2022-09-14T04:10:23;24.20;47.10
68658;DHT22;55639;53.480;-2.228;2022-09-14T04:12:48;24.20;47.10
68658;DHT22;55639;53.480;-2.228;2022-09-14T04:15:14;24.20;47.10
68658;DHT22;55639;53.480;-2.228;2022-09-14T04:17:39;24.20;47.10
68658;DHT22;55639;53.480;-2.228;2022-09-14T04:20:05;24.20;47.10
68658;DHT22;55639;53.480;-2.228;2022-09-14T04:22:30;24.20;47.10
68658;DHT22;55639;53.480;-2.228;2022-09-14T04:24:57;24.20;47.10
68658;DHT22;55639;53.480;-2.228;2022-09-14T04:27:23;24.20;47.10
68658;DHT22;55639;53.480;-2.228;2022-09-14T04:29:48;24.20;47.10
68658;DHT22;55639;53.480;-2.228;2022-09-14T04:32:15;24.20;47.10
68658;DHT22;55639;53.480;-2.228;2022-09-14T04:34:40;24.20;47.10
68658;DHT22;55639;53.480;-2.228;2022-09-14T04:37:06;24.20;47.10
68658;DHT22;55639;53.480;-2.228;2022-09-14T04:39:31;24.20;47.60
68658;DHT22;55639;53.480;-2.228;2022-09-14T04:41:57;24.20;47.10
68658;DHT22;55639;53.480;-2.228;2022-09-14T04:44:22;24.20;47.10
68658;DHT22;55639;53.480;-2.228;2022-09-14T04:46:48;24.20;47.10
68658;DHT22;55639;53.480;-2.228;2022-09-14T04:49:16;24.20;47.10
68658;DHT22;55639;53.480;-2.228;2022-09-14T04:51:43;24.20;47.10
68658;DHT22;55639;53.480;-2.228;2022-09-14T04:54:12;24.20;47.10
68658;DHT22;55639;53.480;-2.228;2022-09-14T04:56:37;24.20;47.10
68658;DHT22;55639;53.480;-2.228;2022-09-14T04:59:03;24.20;47.10
68658;DHT22;55639;53.480;-2.228;2022-09-14T05:01:31;24.10;47.10
68658;DHT22;55639;53.480;-2.228;2022-09-14T05:03:57;24.10;47.10
68658;DHT22;55639;53.480;-2.228;2022-09-14T05:06:24;24.10;47.10
68658;DHT22;55639;53.480;-2.228;2022-09-14T05:08:50;24.10;47.10
68658;DHT22;55639;53.480;-2.228;2022-09-14T05:11:20;24.10;47.10
68658;DHT22;55639;53.480;-2.228;2022-09-14T05:13:46;24.10;47.10
68658;DHT22;55639;53.480;-2.228;2022-09-14T05:16:16;24.10;47.10
68658;DHT22;55639;53.480;-2.228;2022-09-14T05:18:42;24.10;47.10
68658;DHT22;55639;53.480;-2.228;2022-09-14T05:21:09;24.10;47.10
68658;DHT22;55639;53.480;-2.228;2022-09-14T05:23:35;24.10;47.10
68658;DHT22;55639;53.480;-2.228;2022-09-14T05:26:01;24.10;47.10
68658;DHT22;55639;53.480;-2.228;2022-09-14T05:28:26;24.10;47.10
68658;DHT22;55639;53.480;-2.228;2022-09-14T05:30:52;24.10;47.10
68658;DHT22;55639;53.480;-2.228;2022-09-14T05:33:18;24.10;47.10
68658;DHT22;55639;53.480;-2.228;2022-09-14T05:35:44;24.10;47.10
68658;DHT22;55639;53.480;-2.228;2022-09-14T05:38:10;24.10;47.10
68658;DHT22;55639;53.480;-2.228;2022-09-14T05:40:35;24.10;47.10
68658;DHT22;55639;53.480;-2.228;2022-09-14T05:43:01;24.00;47.00
68658;DHT22;55639;53.480;-2.228;2022-09-14T05:45:26;24.10;47.10
68658;DHT22;55639;53.480;-2.228;2022-09-14T05:47:52;24.00;47.00
68658;DHT22;55639;53.480;-2.228;2022-09-14T05:50:17;24.10;47.10
68658;DHT22;55639;53.480;-2.228;2022-09-14T05:52:43;24.10;47.10
68658;DHT22;55639;53.480;-2.228;2022-09-14T05:55:08;24.00;47.00
68658;DHT22;55639;53.480;-2.228;2022-09-14T05:57:34;24.10;47.00
68658;DHT22;55639;53.480;-2.228;2022-09-14T05:59:59;24.10;47.10
68658;DHT22;55639;53.480;-2.228;2022-09-14T06:02:25;24.00;47.00
68658;DHT22;55639;53.480;-2.228;2022-09-14T06:04:50;24.00;47.60
68658;DHT22;55639;53.480;-2.228;2022-09-14T06:07:16;24.00;47.00
68658;DHT22;55639;53.480;-2.228;2022-09-14T06:09:41;24.00;47.00
68658;DHT22;55639;53.480;-2.228;2022-09-14T06:12:07;24.00;47.00
68658;DHT22;55639;53.480;-2.228;2022-09-14T06:14:33;24.00;47.00
68658;DHT22;55639;53.480;-2.228;2022-09-14T06:16:58;24.00;47.00
68658;DHT22;55639;53.480;-2.228;2022-09-14T06:19:24;24.00;47.00
68658;DHT22;55639;53.480;-2.228;2022-09-14T06:21:50;24.00;47.00
68658;DHT22;55639;53.480;-2.228;2022-09-14T06:24:16;24.00;47.00
68658;DHT22;55639;53.480;-2.228;2022-09-14T06:26:42;24.00;47.00
68658;DHT22;55639;53.480;-2.228;2022-09-14T06:29:07;24.00;47.00
68658;DHT22;55639;53.480;-2.228;2022-09-14T06:31:33;24.00;47.00
68658;DHT22;55639;53.480;-2.228;2022-09-14T06:33:59;24.00;47.00
68658;DHT22;55639;53.480;-2.228;2022-09-14T06:36:26;24.00;47.00
68658;DHT22;55639;53.480;-2.228;2022-09-14T06:38:51;24.00;47.00
68658;DHT22;55639;53.480;-2.228;2022-09-14T06:41:18;24.00;47.00
68658;DHT22;55639;53.480;-2.228;2022-09-14T06:43:45;24.00;47.00
68658;DHT22;55639;53.480;-2.228;2022-09-14T06:46:15;24.00;47.00
68658;DHT22;55639;53.480;-2.228;2022-09-14T06:48:42;24.00;47.00
68658;DHT22;55639;53.480;-2.228;2022-09-14T06:51:15;24.00;47.00
68658;DHT22;55639;53.480;-2.228;2022-09-14T06:53:42;24.00;47.00
68658;DHT22;55639;53.480;-2.228;2022-09-14T06:56:07;24.00;47.00
68658;DHT22;55639;53.480;-2.228;2022-09-14T06:58:33;24.00;47.00
68658;DHT22;55639;53.480;-2.228;2022-09-14T07:01:05;24.00;47.00
68658;DHT22;55639;53.480;-2.228;2022-09-14T07:03:31;24.00;47.00
68658;DHT22;55639;53.480;-2.228;2022-09-14T07:06:06;24.00;46.90
68658;DHT22;55639;53.480;-2.228;2022-09-14T07:08:32;24.00;47.00
68658;DHT22;55639;53.480;-2.228;2022-09-14T07:10:58;23.90;46.90
68658;DHT22;55639;53.480;-2.228;2022-09-14T07:13:24;23.90;46.90
68658;DHT22;55639;53.480;-2.228;2022-09-14T07:15:49;23.90;46.90
68658;DHT22;55639;53.480;-2.228;2022-09-14T07:18:15;23.90;46.90
68658;DHT22;55639;53.480;-2.228;2022-09-14T07:20:40;24.00;47.00
68658;DHT22;55639;53.480;-2.228;2022-09-14T07:23:06;23.90;47.00
68658;DHT22;55639;53.480;-2.228;2022-09-14T07:25:31;23.90;47.00
68658;DHT22;55639;53.480;-2.228;2022-09-14T07:27:57;23.90;47.00
68658;DHT22;55639;53.480;-2.228;2022-09-14T07:30:24;23.90;47.00
68658;DHT22;55639;53.480;-2.228;2022-09-14T07:32:52;23.90;47.00
68658;DHT22;55639;53.480;-2.228;2022-09-14T07:35:18;23.90;47.00
68658;DHT22;55639;53.480;-2.228;2022-09-14T07:37:43;23.90;47.00
68658;DHT22;55639;53.480;-2.228;2022-09-14T07:40:09;23.90;47.00
68658;DHT22;55639;53.480;-2.228;2022-09-14T07:42:35;23.90;47.00
68658;DHT22;55639;53.480;-2.228;2022-09-14T07:45:02;23.90;47.00
68658;DHT22;55639;53.480;-2.228;2022-09-14T07:47:28;23.90;47.00
68658;DHT22;55639;53.480;-2.228;2022-09-14T07:49:54;23.90;47.00
68658;DHT22;55639;53.480;-2.228;2022-09-14T07:52:19;23.90;47.00
68658;DHT22;55639;53.480;-2.228;2022-09-14T07:54:45;23.90;47.00
68658;DHT22;55639;53.480;-2.228;2022-09-14T07:57:11;23.90;47.00
68658;DHT22;55639;53.480;-2.228;2022-09-14T07:59:36;23.90;47.00
68658;DHT22;55639;53.480;-2.228;2022-09-14T08:02:05;23.90;47.60
68658;DHT22;55639;53.480;-2.228;2022-09-14T08:04:32;23.90;47.00
68658;DHT22;55639;53.480;-2.228;2022-09-14T08:06:58;23.90;47.00
68658;DHT22;55639;53.480;-2.228;2022-09-14T08:09:23;23.90;47.00
68658;DHT22;55639;53.480;-2.228;2022-09-14T08:11:50;23.90;47.00
68658;DHT22;55639;53.480;-2.228;2022-09-14T08:14:15;23.90;47.00
68658;DHT22;55639;53.480;-2.228;2022-09-14T08:16:41;23.90;47.00
68658;DHT22;55639;53.480;-2.228;2022-09-14T08:19:09;23.90;47.00
68658;DHT22;55639;53.480;-2.228;2022-09-14T08:21:36;23.90;47.00
68658;DHT22;55639;53.480;-2.228;2022-09-14T08:24:02;23.90;47.00
68658;DHT22;55639;53.480;-2.228;2022-09-14T08:26:28;23.90;47.00
68658;DHT22;55639;53.480;-2.228;2022-09-14T08:28:54;23.90;47.00
68658;DHT22;55639;53.480;-2.228;2022-09-14T08:31:20;23.90;47.00
68658;DHT22;55639;53.480;-2.228;2022-09-14T08:33:47;23.90;47.00
68658;DHT22;55639;53.480;-2.228;2022-09-14T08:36:14;23.80;47.00
68658;DHT22;55639;53.480;-2.228;2022-09-14T08:38:40;23.90;47.00
68658;DHT22;55639;53.480;-2.228;2022-09-14T08:41:49;23.80;47.00
68658;DHT22;55639;53.480;-2.228;2022-09-14T08:43:58;23.90;47.00
68658;DHT22;55639;53.480;-2.228;2022-09-14T08:46:29;23.90;47.00
68658;DHT22;55639;53.480;-2.228;2022-09-14T08:48:55;23.80;47.00
68658;DHT22;55639;53.480;-2.228;2022-09-14T08:51:20;23.90;47.00
68658;DHT22;55639;53.480;-2.228;2022-09-14T08:53:46;23.90;47.00
68658;DHT22;55639;53.480;-2.228;2022-09-14T08:56:14;23.90;47.00
68658;DHT22;55639;53.480;-2.228;2022-09-14T09:01:27;23.90;47.00
68658;DHT22;55639;53.480;-2.228;2022-09-14T09:04:01;23.90;47.00
68658;DHT22;55639;53.480;-2.228;2022-09-14T09:06:33;23.90;47.00
68658;DHT22;55639;53.480;-2.228;2022-09-14T09:11:46;23.80;47.00
68658;DHT22;55639;53.480;-2.228;2022-09-14T09:16:42;23.80;47.00
68658;DHT22;55639;53.480;-2.228;2022-09-14T09:19:10;23.80;47.00
68658;DHT22;55639;53.480;-2.228;2022-09-14T09:21:39;23.80;47.00
68658;DHT22;55639;53.480;-2.228;2022-09-14T09:26:40;23.80;47.00
68658;DHT22;55639;53.480;-2.228;2022-09-14T09:29:07;23.80;47.00
68658;DHT22;55639;53.480;-2.228;2022-09-14T09:31:34;23.80;46.90
68658;DHT22;55639;53.480;-2.228;2022-09-14T09:34:00;23.80;47.00
68658;DHT22;55639;53.480;-2.228;2022-09-14T09:36:28;23.80;47.00
68658;DHT22;55639;53.480;-2.228;2022-09-14T09:38:55;23.80;47.00
68658;DHT22;55639;53.480;-2.228;2022-09-14T09:41:25;23.80;47.00
68658;DHT22;55639;53.480;-2.228;2022-09-14T09:44:02;23.80;47.00
68658;DHT22;55639;53.480;-2.228;2022-09-14T09:46:34;23.80;47.00
68658;DHT22;55639;53.480;-2.228;2022-09-14T09:49:13;23.80;47.00
68658;DHT22;55639;53.480;-2.228;2022-09-14T09:51:38;23.80;47.00
68658;DHT22;55639;53.480;-2.228;2022-09-14T09:54:06;23.80;46.90
68658;DHT22;55639;53.480;-2.228;2022-09-14T09:56:35;23.80;46.90
68658;DHT22;55639;53.480;-2.228;2022-09-14T09:59:01;23.80;46.90
68658;DHT22;55639;53.480;-2.228;2022-09-14T10:01:28;23.80;46.90
68658;DHT22;55639;53.480;-2.228;2022-09-14T10:06:29;23.80;47.00
68658;DHT22;55639;53.480;-2.228;2022-09-14T10:08:55;23.80;46.90
68658;DHT22;55639;53.480;-2.228;2022-09-14T10:11:25;23.80;46.90
68658;DHT22;55639;53.480;-2.228;2022-09-14T10:13:52;23.80;46.90
68658;DHT22;55639;53.480;-2.228;2022-09-14T10:16:17;23.80;46.90
68658;DHT22;55639;53.480;-2.228;2022-09-14T10:18:48;23.80;46.90
68658;DHT22;55639;53.480;-2.228;2022-09-14T10:21:24;23.80;46.90
68658;DHT22;55639;53.480;-2.228;2022-09-14T10:24:17;23.80;46.90
68658;DHT22;55639;53.480;-2.228;2022-09-14T10:26:44;23.80;46.90
68658;DHT22;55639;53.480;-2.228;2022-09-14T10:29:16;23.80;46.90
68658;DHT22;55639;53.480;-2.228;2022-09-14T10:31:44;23.80;46.90
68658;DHT22;55639;53.480;-2.228;2022-09-14T10:34:12;23.80;46.90
68658;DHT22;55639;53.480;-2.228;2022-09-14T10:36:44;23.80;46.90
68658;DHT22;55639;53.480;-2.228;2022-09-14T10:46:49;23.80;46.80
68658;DHT22;55639;53.480;-2.228;2022-09-14T10:49:20;23.80;46.80
68658;DHT22;55639;53.480;-2.228;2022-09-14T10:52:01;23.80;46.80
68658;DHT22;55639;53.480;-2.228;2022-09-14T10:57:05;23.80;46.80
68658;DHT22;55639;53.480;-2.228;2022-09-14T11:10:15;23.80;46.70
68658;DHT22;55639;53.480;-2.228;2022-09-14T11:18:07;23.90;46.70
68658;DHT22;55639;53.480;-2.228;2022-09-14T11:20:41;23.90;46.70
68658;DHT22;55639;53.480;-2.228;2022-09-14T11:26:31;23.90;46.70
68658;DHT22;55639;53.480;-2.228;2022-09-14T11:28:39;23.90;46.70
68658;DHT22;55639;53.480;-2.228;2022-09-14T11:31:22;23.90;46.70
68658;DHT22;55639;53.480;-2.228;2022-09-14T11:33:54;23.90;46.70
68658;DHT22;55639;53.480;-2.228;2022-09-14T11:39:29;23.90;46.60
68658;DHT22;55639;53.480;-2.228;2022-09-14T11:42:12;23.90;46.60
68658;DHT22;55639;53.480;-2.228;2022-09-14T11:46:55;23.90;46.60
68658;DHT22;55639;53.480;-2.228;2022-09-14T11:49:32;23.90;46.70
68658;DHT22;55639;53.480;-2.228;2022-09-14T11:52:18;23.90;46.60
68658;DHT22;55639;53.480;-2.228;2022-09-14T11:54:45;23.90;46.60
68658;DHT22;55639;53.480;-2.228;2022-09-14T11:57:19;23.90;46.50
68658;DHT22;55639;53.480;-2.228;2022-09-14T11:59:49;23.90;46.50
68658;DHT22;55639;53.480;-2.228;2022-09-14T12:05:23;24.00;46.50
68658;DHT22;55639;53.480;-2.228;2022-09-14T12:12:43;24.00;46.50
68658;DHT22;55639;53.480;-2.228;2022-09-14T12:15:14;24.00;46.50
68658;DHT22;55639;53.480;-2.228;2022-09-14T12:17:41;24.00;46.40
68658;DHT22;55639;53.480;-2.228;2022-09-14T12:22:44;24.10;46.40
68658;DHT22;55639;53.480;-2.228;2022-09-14T12:25:15;24.10;46.40
68658;DHT22;55639;53.480;-2.228;2022-09-14T12:27:42;24.10;46.20
68658;DHT22;55639;53.480;-2.228;2022-09-14T12:32:52;24.20;46.30
68658;DHT22;55639;53.480;-2.228;2022-09-14T12:37:59;24.20;46.20
68658;DHT22;55639;53.480;-2.228;2022-09-14T12:40:45;24.20;46.20
68658;DHT22;55639;53.480;-2.228;2022-09-14T12:43:45;24.20;45.90
68658;DHT22;55639;53.480;-2.228;2022-09-14T12:51:13;24.30;45.70
68658;DHT22;55639;53.480;-2.228;2022-09-14T12:53:42;24.30;45.70
68658;DHT22;55639;53.480;-2.228;2022-09-14T12:56:19;24.40;45.80
68658;DHT22;55639;53.480;-2.228;2022-09-14T12:59:02;24.40;45.90
68658;DHT22;55639;53.480;-2.228;2022-09-14T13:04:15;24.40;45.80
68658;DHT22;55639;53.480;-2.228;2022-09-14T13:06:45;24.50;45.80
68658;DHT22;55639;53.480;-2.228;2022-09-14T13:09:18;24.50;45.80
68658;DHT22;55639;53.480;-2.228;2022-09-14T13:11:44;24.50;45.80
68658;DHT22;55639;53.480;-2.228;2022-09-14T13:14:17;24.60;45.80
68658;DHT22;55639;53.480;-2.228;2022-09-14T13:16:43;24.60;45.80
68658;DHT22;55639;53.480;-2.228;2022-09-14T13:19:29;24.60;45.90
68658;DHT22;55639;53.480;-2.228;2022-09-14T13:21:56;24.60;45.80
68658;DHT22;55639;53.480;-2.228;2022-09-14T13:24:29;24.60;45.70
68658;DHT22;55639;53.480;-2.228;2022-09-14T13:26:57;24.60;45.70
68658;DHT22;55639;53.480;-2.228;2022-09-14T13:29:24;24.70;45.70
68658;DHT22;55639;53.480;-2.228;2022-09-14T13:31:51;24.70;45.50
68658;DHT22;55639;53.480;-2.228;2022-09-14T13:34:20;24.70;45.60
68658;DHT22;55639;53.480;-2.228;2022-09-14T13:36:48;24.70;45.60
68658;DHT22;55639;53.480;-2.228;2022-09-14T13:39:24;24.70;45.50
68658;DHT22;55639;53.480;-2.228;2022-09-14T13:41:50;24.70;45.60
68658;DHT22;55639;53.480;-2.228;2022-09-14T13:44:16;24.80;45.60
68658;DHT22;55639;53.480;-2.228;2022-09-14T13:46:42;24.80;45.50
68658;DHT22;55639;53.480;-2.228;2022-09-14T13:49:11;24.80;45.40
68658;DHT22;55639;53.480;-2.228;2022-09-14T13:51:37;24.90;45.50
68658;DHT22;55639;53.480;-2.228;2022-09-14T13:54:15;24.90;45.50
68658;DHT22;55639;53.480;-2.228;2022-09-14T13:56:44;25.00;45.40
68658;DHT22;55639;53.480;-2.228;2022-09-14T13:59:12;25.00;45.30
68658;DHT22;55639;53.480;-2.228;2022-09-14T14:01:38;25.00;45.20
68658;DHT22;55639;53.480;-2.228;2022-09-14T14:04:05;25.00;45.20
68658;DHT22;55639;53.480;-2.228;2022-09-14T14:06:32;25.00;45.20
68658;DHT22;55639;53.480;-2.228;2022-09-14T14:11:25;25.00;45.10
68658;DHT22;55639;53.480;-2.228;2022-09-14T14:13:52;25.10;45.20
68658;DHT22;55639;53.480;-2.228;2022-09-14T14:16:21;25.10;45.20
68658;DHT22;55639;53.480;-2.228;2022-09-14T14:18:49;25.20;45.20
68658;DHT22;55639;53.480;-2.228;2022-09-14T14:23:47;25.20;45.00
68658;DHT22;55639;53.480;-2.228;2022-09-14T14:26:17;25.20;45.00
68658;DHT22;55639;53.480;-2.228;2022-09-14T14:28:44;25.20;45.00
68658;DHT22;55639;53.480;-2.228;2022-09-14T14:31:11;25.20;45.00
68658;DHT22;55639;53.480;-2.228;2022-09-14T14:33:43;25.20;45.00
68658;DHT22;55639;53.480;-2.228;2022-09-14T14:36:08;25.10;45.00
68658;DHT22;55639;53.480;-2.228;2022-09-14T14:38:35;25.20;45.00
68658;DHT22;55639;53.480;-2.228;2022-09-14T14:41:00;25.20;45.00
68658;DHT22;55639;53.480;-2.228;2022-09-14T14:43:26;25.20;45.00
68658;DHT22;55639;53.480;-2.228;2022-09-14T14:45:53;25.20;45.00
68658;DHT22;55639;53.480;-2.228;2022-09-14T14:48:19;25.20;45.00
68658;DHT22;55639;53.480;-2.228;2022-09-14T14:50:44;25.20;45.00
68658;DHT22;55639;53.480;-2.228;2022-09-14T14:53:11;25.10;44.90
68658;DHT22;55639;53.480;-2.228;2022-09-14T14:55:36;25.10;45.00
68658;DHT22;55639;53.480;-2.228;2022-09-14T14:58:18;25.10;45.60
68658;DHT22;55639;53.480;-2.228;2022-09-14T15:00:45;25.10;45.00
68658;DHT22;55639;53.480;-2.228;2022-09-14T15:03:12;25.10;45.00
68658;DHT22;55639;53.480;-2.228;2022-09-14T15:05:38;25.10;45.10
68658;DHT22;55639;53.480;-2.228;2022-09-14T15:08:04;25.10;45.00
68658;DHT22;55639;53.480;-2.228;2022-09-14T15:10:29;25.10;45.10
68658;DHT22;55639;53.480;-2.228;2022-09-14T15:12:55;25.10;45.00
68658;DHT22;55639;53.480;-2.228;2022-09-14T15:15:22;25.00;45.00
68658;DHT22;55639;53.480;-2.228;2022-09-14T15:17:49;25.10;45.10
68658;DHT22;55639;53.480;-2.228;2022-09-14T15:20:14;25.10;45.20
68658;DHT22;55639;53.480;-2.228;2022-09-14T15:22:40;25.00;44.90
68658;DHT22;55639;53.480;-2.228;2022-09-14T15:25:07;25.00;45.00
68658;DHT22;55639;53.480;-2.228;2022-09-14T15:27:33;25.00;45.00
68658;DHT22;55639;53.480;-2.228;2022-09-14T15:30:02;25.00;45.00
68658;DHT22;55639;53.480;-2.228;2022-09-14T15:32:28;25.00;45.10
68658;DHT22;55639;53.480;-2.228;2022-09-14T15:34:54;25.00;45.20
68658;DHT22;55639;53.480;-2.228;2022-09-14T15:37:19;25.00;45.00
68658;DHT22;55639;53.480;-2.228;2022-09-14T15:39:45;25.00;45.00
68658;DHT22;55639;53.480;-2.228;2022-09-14T15:42:12;24.90;45.10
68658;DHT22;55639;53.480;-2.228;2022-09-14T15:44:38;25.00;45.10
68658;DHT22;55639;53.480;-2.228;2022-09-14T15:47:04;24.90;45.20
68658;DHT22;55639;53.480;-2.228;2022-09-14T15:49:29;25.00;45.30
68658;DHT22;55639;53.480;-2.228;2022-09-14T15:51:55;24.90;45.30
68658;DHT22;55639;53.480;-2.228;2022-09-14T15:54:21;24.90;45.30
68658;DHT22;55639;53.480;-2.228;2022-09-14T15:56:48;24.90;45.30
68658;DHT22;55639;53.480;-2.228;2022-09-14T15:59:14;24.90;45.20
68658;DHT22;55639;53.480;-2.228;2022-09-14T16:01:40;24.90;45.20
68658;DHT22;55639;53.480;-2.228;2022-09-14T16:04:08;24.90;45.30
68658;DHT22;55639;53.480;-2.228;2022-09-14T16:06:33;24.90;45.30
68658;DHT22;55639;53.480;-2.228;2022-09-14T16:09:00;24.90;45.40
68658;DHT22;55639;53.480;-2.228;2022-09-14T16:11:26;24.90;45.40
68658;DHT22;55639;53.480;-2.228;2022-09-14T16:13:51;24.90;45.30
68658;DHT22;55639;53.480;-2.228;2022-09-14T16:16:17;24.90;45.90
68658;DHT22;55639;53.480;-2.228;2022-09-14T16:18:43;24.90;45.40
68658;DHT22;55639;53.480;-2.228;2022-09-14T16:21:10;24.90;45.30
68658;DHT22;55639;53.480;-2.228;2022-09-14T16:23:41;24.90;45.40
68658;DHT22;55639;53.480;-2.228;2022-09-14T16:26:07;24.90;45.40
68658;DHT22;55639;53.480;-2.228;2022-09-14T16:28:35;24.90;45.40
68658;DHT22;55639;53.480;-2.228;2022-09-14T16:31:05;24.80;45.30
68658;DHT22;55639;53.480;-2.228;2022-09-14T16:33:34;24.80;45.30
68658;DHT22;55639;53.480;-2.228;2022-09-14T16:36:04;24.80;45.20
68658;DHT22;55639;53.480;-2.228;2022-09-14T16:38:31;24.80;45.30
68658;DHT22;55639;53.480;-2.228;2022-09-14T16:40:57;24.80;45.30
68658;DHT22;55639;53.480;-2.228;2022-09-14T16:43:23;24.80;45.30
68658;DHT22;55639;53.480;-2.228;2022-09-14T16:45:58;24.80;45.30
68658;DHT22;55639;53.480;-2.228;2022-09-14T16:48:24;24.80;45.30
68658;DHT22;55639;53.480;-2.228;2022-09-14T16:50:52;24.80;45.40
68658;DHT22;55639;53.480;-2.228;2022-09-14T16:53:18;24.80;45.30
68658;DHT22;55639;53.480;-2.228;2022-09-14T16:55:44;24.80;45.30